createdAt,value
2023-03-10T00:00:46.768Z,2.10
2023-03-10T00:03:13.531Z,1.52
2023-03-10T00:05:40.457Z,1.77
2023-03-10T00:08:07.500Z,1.77
2023-03-10T00:10:34.218Z,1.50
2023-03-10T00:13:00.875Z,1.85
2023-03-10T00:15:27.822Z,1.73
2023-03-10T00:17:55.880Z,1.50
2023-03-10T00:20:23.652Z,1.70
2023-03-10T00:22:50.348Z,1.23
2023-03-10T00:25:17.134Z,1.45
2023-03-10T00:27:43.934Z,1.40
2023-03-10T00:30:11.113Z,1.77
2023-03-10T00:32:37.877Z,1.75
2023-03-10T00:35:06.039Z,1.75
2023-03-10T00:37:32.736Z,1.35
2023-03-10T00:39:59.473Z,1.40
2023-03-10T00:42:26.191Z,1.80
2023-03-10T00:44:53.257Z,1.60
2023-03-10T00:47:19.932Z,1.50
2023-03-10T00:49:48.024Z,1.20
2023-03-10T00:52:14.706Z,1.38
2023-03-10T00:54:42.166Z,1.40
2023-03-10T00:57:09.376Z,1.42
2023-03-10T00:59:49.429Z,1.52
2023-03-10T01:02:16.541Z,1.35
2023-03-10T01:04:43.332Z,1.60
2023-03-10T01:07:10.057Z,1.75
2023-03-10T01:09:36.946Z,1.67
2023-03-10T01:12:03.690Z,1.65
2023-03-10T01:14:31.988Z,1.95
2023-03-10T01:16:59.617Z,2.55
2023-03-10T01:19:26.430Z,2.58
2023-03-10T01:21:53.180Z,2.72
2023-03-10T01:24:19.912Z,2.67
2023-03-10T01:26:46.601Z,2.58
2023-03-10T01:29:13.266Z,2.72
2023-03-10T01:31:42.019Z,2.53
2023-03-10T01:34:08.857Z,3.22
2023-03-10T01:36:35.628Z,2.95
2023-03-10T01:39:02.336Z,2.55
2023-03-10T01:41:29.045Z,2.85
2023-03-10T01:43:56.984Z,2.30
2023-03-10T01:46:40.504Z,2.95
2023-03-10T01:49:43.891Z,2.75
2023-03-10T01:52:11.810Z,2.33
2023-03-10T01:54:50.090Z,2.60
2023-03-10T01:57:20.676Z,2.75
2023-03-10T01:59:47.572Z,2.70
2023-03-10T02:02:14.403Z,2.47
2023-03-10T02:04:47.219Z,2.70
2023-03-10T02:07:14.876Z,2.20
2023-03-10T02:09:44.578Z,2.67
2023-03-10T02:12:13.661Z,2.58
2023-03-10T02:14:40.403Z,2.72
2023-03-10T02:17:09.548Z,2.30
2023-03-10T02:22:10.417Z,2.58
2023-03-10T02:24:53.194Z,2.42
2023-03-10T02:27:24.751Z,2.30
2023-03-10T02:29:59.585Z,2.78
2023-03-10T02:32:28.437Z,2.25
2023-03-10T02:34:55.090Z,2.83
2023-03-10T02:37:30.666Z,2.17
2023-03-10T02:39:58.096Z,2.95
2023-03-10T02:42:27.977Z,2.92
2023-03-10T02:44:55.250Z,2.72
2023-03-10T02:47:21.981Z,2.33
2023-03-10T02:49:48.855Z,2.33
2023-03-10T02:52:38.695Z,3.05
2023-03-10T02:55:05.774Z,2.58
2023-03-10T02:57:32.468Z,2.70
2023-03-10T02:59:59.115Z,2.58
2023-03-10T03:02:25.876Z,2.55
2023-03-10T03:04:52.506Z,2.78
2023-03-10T03:07:19.174Z,2.55
2023-03-10T03:09:45.898Z,2.83
2023-03-10T03:12:12.546Z,2.65
2023-03-10T03:14:39.315Z,2.83
2023-03-10T03:17:06.149Z,2.95
2023-03-10T03:19:32.815Z,2.70
2023-03-10T03:21:59.486Z,2.67
2023-03-10T03:24:26.300Z,2.70
2023-03-10T03:26:52.946Z,2.65
2023-03-10T03:29:19.662Z,2.97
2023-03-10T03:31:46.458Z,3.08
2023-03-10T03:34:13.170Z,3.00
2023-03-10T03:36:39.888Z,2.83
2023-03-10T03:39:07.229Z,2.80
2023-03-10T03:41:34.531Z,2.88
2023-03-10T03:44:01.300Z,2.65
2023-03-10T03:46:28.052Z,2.85
2023-03-10T03:48:54.734Z,3.53
2023-03-10T03:51:21.454Z,3.13
2023-03-10T03:53:48.104Z,3.20
2023-03-10T03:56:14.765Z,3.60
2023-03-10T03:58:41.525Z,2.95
2023-03-10T04:01:08.196Z,3.38
2023-03-10T04:03:34.895Z,3.60
2023-03-10T04:06:02.149Z,3.95
2023-03-10T04:08:28.900Z,3.60
2023-03-10T04:10:55.896Z,3.85
2023-03-10T04:13:22.574Z,3.72
2023-03-10T04:15:49.440Z,3.90
2023-03-10T04:18:16.176Z,3.80
2023-03-10T04:20:42.796Z,3.55
2023-03-10T04:23:09.579Z,4.93
2023-03-10T04:25:36.432Z,4.47
2023-03-10T04:28:03.111Z,3.90
2023-03-10T04:30:29.999Z,4.35
2023-03-10T04:32:59.153Z,4.70
2023-03-10T04:37:53.131Z,4.13
2023-03-10T04:40:20.068Z,4.45
2023-03-10T04:42:46.937Z,19.08
2023-03-10T04:45:13.639Z,4.75
2023-03-10T04:47:40.604Z,11.23
2023-03-10T04:50:07.687Z,5.65
2023-03-10T04:52:34.376Z,5.03
2023-03-10T04:55:01.071Z,5.03
2023-03-10T04:57:27.793Z,4.35
2023-03-10T04:59:54.580Z,4.22
2023-03-10T05:02:21.390Z,4.80
2023-03-10T05:04:48.134Z,4.38
2023-03-10T05:07:14.887Z,3.47
2023-03-10T05:09:42.604Z,3.95
2023-03-10T05:12:10.496Z,3.97
2023-03-10T05:14:37.972Z,4.43
2023-03-10T05:17:05.138Z,3.80
2023-03-10T05:19:34.676Z,3.92
2023-03-10T05:22:02.050Z,4.05
2023-03-10T05:24:28.762Z,4.15
2023-03-10T05:26:55.553Z,7.38
2023-03-10T05:29:22.322Z,6.90
2023-03-10T05:31:49.064Z,7.55
2023-03-10T05:34:16.034Z,4.50
2023-03-10T05:36:43.597Z,3.80
2023-03-10T05:39:11.116Z,3.70
2023-03-10T05:41:38.629Z,4.15
2023-03-10T05:44:05.538Z,6.00
2023-03-10T05:46:32.274Z,5.28
2023-03-10T05:48:59.333Z,5.80
2023-03-10T05:51:26.111Z,7.47
2023-03-10T05:53:52.757Z,8.82
2023-03-10T05:56:19.822Z,8.30
2023-03-10T05:58:47.185Z,5.63
2023-03-10T06:01:14.693Z,4.95
2023-03-10T06:03:41.749Z,4.80
2023-03-10T06:06:08.919Z,7.35
2023-03-10T06:08:35.960Z,4.85
2023-03-10T06:11:03.777Z,4.20
2023-03-10T06:13:31.303Z,4.05
2023-03-10T06:16:00.719Z,5.25
2023-03-10T06:18:28.006Z,5.15
2023-03-10T06:20:55.326Z,5.28
2023-03-10T06:23:22.862Z,4.05
2023-03-10T06:26:06.985Z,4.13
2023-03-10T06:28:36.703Z,4.38
2023-03-10T06:31:08.933Z,5.00
2023-03-10T06:33:35.928Z,5.50
2023-03-10T06:36:02.760Z,3.88
2023-03-10T06:38:30.585Z,3.45
2023-03-10T06:40:58.148Z,4.00
2023-03-10T06:43:24.933Z,4.15
2023-03-10T06:45:51.949Z,9.75
2023-03-10T06:48:18.661Z,10.15
2023-03-10T06:50:49.718Z,12.02
2023-03-10T06:53:20.945Z,13.30
2023-03-10T06:56:01.868Z,17.65
2023-03-10T06:58:29.868Z,24.33
2023-03-10T07:00:56.730Z,19.60
2023-03-10T07:03:26.301Z,13.20
2023-03-10T07:05:53.308Z,12.73
2023-03-10T07:08:20.223Z,9.25
2023-03-10T07:10:47.063Z,9.75
2023-03-10T07:13:17.465Z,8.63
2023-03-10T07:15:45.386Z,9.35
2023-03-10T07:18:12.862Z,6.05
2023-03-10T07:20:40.915Z,6.13
2023-03-10T07:23:07.868Z,6.47
2023-03-10T07:25:38.368Z,6.35
2023-03-10T07:28:05.718Z,6.32
2023-03-10T07:30:33.430Z,6.53
2023-03-10T07:33:00.145Z,5.90
2023-03-10T07:35:26.913Z,6.50
2023-03-10T07:37:53.613Z,6.15
2023-03-10T07:40:24.877Z,5.13
2023-03-10T07:42:54.542Z,5.70
2023-03-10T07:45:22.399Z,4.95
2023-03-10T07:47:50.892Z,5.75
2023-03-10T07:50:18.435Z,6.35
2023-03-10T07:52:45.402Z,6.32
2023-03-10T07:55:12.363Z,5.28
2023-03-10T07:57:39.075Z,4.63
2023-03-10T08:00:06.981Z,5.32
2023-03-10T08:02:33.644Z,5.00
2023-03-10T08:05:00.360Z,5.47
2023-03-10T08:07:27.757Z,4.90
2023-03-10T08:09:54.944Z,4.93
2023-03-10T08:12:22.080Z,4.00
2023-03-10T08:14:49.208Z,5.63
2023-03-10T08:17:15.923Z,5.03
2023-03-10T08:19:42.703Z,5.90
2023-03-10T08:22:10.357Z,5.40
2023-03-10T08:24:38.061Z,5.50
2023-03-10T08:27:06.029Z,5.93
2023-03-10T08:29:32.743Z,5.93
2023-03-10T08:31:59.469Z,6.40
2023-03-10T08:34:26.246Z,5.97
2023-03-10T08:36:52.901Z,5.80
2023-03-10T08:39:19.561Z,4.90
2023-03-10T08:41:49.407Z,6.18
2023-03-10T08:44:18.085Z,7.43
2023-03-10T08:46:49.181Z,5.32
2023-03-10T08:49:17.412Z,4.75
2023-03-10T08:51:44.286Z,4.72
2023-03-10T08:54:12.441Z,4.38
2023-03-10T08:56:39.298Z,5.00
2023-03-10T08:59:06.019Z,4.65
2023-03-10T09:01:35.050Z,4.40
2023-03-10T09:04:04.177Z,4.22
2023-03-10T09:06:30.929Z,4.90
2023-03-10T09:08:57.936Z,5.32
2023-03-10T09:11:28.186Z,4.05
2023-03-10T09:13:55.422Z,4.40
2023-03-10T09:16:22.149Z,4.13
2023-03-10T09:18:49.023Z,4.95
2023-03-10T09:21:17.205Z,4.07
2023-03-10T09:23:45.857Z,4.38
2023-03-10T09:26:13.000Z,5.72
2023-03-10T09:28:39.673Z,5.90
2023-03-10T09:31:07.855Z,6.10
2023-03-10T09:33:35.403Z,5.28
2023-03-10T09:36:07.380Z,6.78
2023-03-10T09:38:35.108Z,7.10
2023-03-10T09:41:19.019Z,5.20
2023-03-10T09:43:56.810Z,3.38
2023-03-10T09:46:27.219Z,4.45
2023-03-10T09:48:58.919Z,3.50
2023-03-10T09:51:28.570Z,4.70
2023-03-10T09:54:02.176Z,3.80
2023-03-10T09:56:32.712Z,3.55
2023-03-10T09:59:22.002Z,2.53
2023-03-10T10:01:49.911Z,2.72
2023-03-10T10:04:29.505Z,3.55
2023-03-10T10:06:57.385Z,2.83
2023-03-10T10:09:53.282Z,3.22
2023-03-10T10:12:24.302Z,2.67
2023-03-10T10:14:59.898Z,2.08
2023-03-10T10:18:02.691Z,1.83
2023-03-10T10:21:09.413Z,1.75
2023-03-10T10:23:54.361Z,2.25
2023-03-10T10:26:24.060Z,2.03
2023-03-10T10:29:07.598Z,1.75
2023-03-10T10:31:36.060Z,2.22
2023-03-10T10:34:19.723Z,1.80
2023-03-10T10:36:52.812Z,2.00
2023-03-10T10:39:42.492Z,1.88
2023-03-10T10:42:25.063Z,2.03
2023-03-10T10:44:57.908Z,1.60
2023-03-10T10:47:34.753Z,1.88
2023-03-10T10:50:18.075Z,2.05
2023-03-10T10:52:50.640Z,2.00
2023-03-10T10:55:30.515Z,1.77
2023-03-10T10:58:01.678Z,1.90
2023-03-10T11:00:40.623Z,1.88
2023-03-10T11:03:32.893Z,1.73
2023-03-10T11:06:01.237Z,2.17
2023-03-10T11:08:29.551Z,2.28
2023-03-10T11:11:24.628Z,2.03
2023-03-10T11:14:03.778Z,2.35
2023-03-10T11:16:48.898Z,2.03
2023-03-10T11:19:27.915Z,2.15
2023-03-10T11:21:59.064Z,2.30
2023-03-10T11:24:37.489Z,2.00
2023-03-10T11:27:07.068Z,2.35
2023-03-10T11:29:58.204Z,2.70
2023-03-10T11:32:55.314Z,3.70
2023-03-10T11:35:27.424Z,3.35
2023-03-10T11:38:06.582Z,2.25
2023-03-10T11:40:39.780Z,2.53
2023-03-10T11:43:21.637Z,2.83
2023-03-10T11:45:54.444Z,2.72
2023-03-10T11:48:30.716Z,2.95
2023-03-10T11:51:02.623Z,3.25
2023-03-10T11:53:46.140Z,3.38
2023-03-10T11:56:14.967Z,3.35
2023-03-10T11:58:53.238Z,2.90
2023-03-10T12:01:38.994Z,2.88
2023-03-10T12:04:15.705Z,2.60
2023-03-10T12:06:50.662Z,3.50
2023-03-10T12:09:30.204Z,3.40
2023-03-10T12:11:57.170Z,2.80
2023-03-10T12:14:25.086Z,2.83
2023-03-10T12:16:52.688Z,3.10
2023-03-10T12:19:19.416Z,3.15
2023-03-10T12:22:38.867Z,3.38
2023-03-10T12:25:25.981Z,3.65
2023-03-10T12:28:10.885Z,3.17
2023-03-10T12:30:47.592Z,4.28
2023-03-10T12:33:39.513Z,3.67
2023-03-10T12:36:16.778Z,3.55
2023-03-10T12:39:03.456Z,5.05
2023-03-10T12:41:30.687Z,3.55
2023-03-10T12:44:02.823Z,3.88
2023-03-10T12:46:38.562Z,3.85
2023-03-10T12:49:08.033Z,3.33
2023-03-10T12:51:41.725Z,3.92
2023-03-10T12:54:42.881Z,3.67
2023-03-10T12:57:24.906Z,3.17
2023-03-10T13:00:17.456Z,3.33
2023-03-10T13:03:11.698Z,3.25
2023-03-10T13:05:41.926Z,2.95
2023-03-10T13:08:21.854Z,2.67
2023-03-10T13:10:52.747Z,3.42
2023-03-10T13:13:19.431Z,2.78
2023-03-10T13:15:58.415Z,3.17
2023-03-10T13:18:25.282Z,2.75
2023-03-10T13:20:51.981Z,2.72
2023-03-10T13:23:24.493Z,2.67
2023-03-10T13:26:15.400Z,2.40
2023-03-10T13:28:53.816Z,2.35
2023-03-10T13:31:26.553Z,2.88
2023-03-10T13:33:54.856Z,2.72
2023-03-10T13:36:21.657Z,3.45
2023-03-10T13:38:49.973Z,3.72
2023-03-10T13:41:16.606Z,3.60
2023-03-10T13:43:48.635Z,3.10
2023-03-10T13:46:27.509Z,4.15
2023-03-10T13:48:56.013Z,4.55
2023-03-10T13:51:32.563Z,4.25
2023-03-10T13:54:22.507Z,5.15
2023-03-10T13:56:51.666Z,4.68
2023-03-10T13:59:24.650Z,5.90
2023-03-10T14:01:53.902Z,5.43
2023-03-10T14:04:40.032Z,5.45
2023-03-10T14:07:08.864Z,5.63
2023-03-10T14:09:36.005Z,5.85
2023-03-10T14:12:02.850Z,6.03
2023-03-10T14:14:38.673Z,5.68
2023-03-10T14:17:08.537Z,5.88
2023-03-10T14:19:44.130Z,6.90
2023-03-10T14:22:22.600Z,6.38
2023-03-10T14:24:49.346Z,6.28
2023-03-10T14:27:16.271Z,6.13
2023-03-10T14:29:55.460Z,5.72
2023-03-10T14:32:23.292Z,5.40
2023-03-10T14:34:50.178Z,7.15
2023-03-10T14:37:16.861Z,6.63
2023-03-10T14:39:43.879Z,6.75
2023-03-10T14:42:22.704Z,6.63
2023-03-10T14:44:50.817Z,7.38
2023-03-10T14:47:18.176Z,6.50
2023-03-10T14:49:45.202Z,7.43
2023-03-10T14:52:15.027Z,14.10
2023-03-10T14:54:42.042Z,7.80
2023-03-10T14:57:08.829Z,6.28
2023-03-10T14:59:35.766Z,6.47
2023-03-10T15:02:12.849Z,6.50
2023-03-10T15:04:39.592Z,6.50
2023-03-10T15:07:10.447Z,6.72
2023-03-10T15:09:37.233Z,6.15
2023-03-10T15:12:04.232Z,6.55
2023-03-10T15:14:31.297Z,6.13
2023-03-10T15:16:57.969Z,6.38
2023-03-10T15:19:27.249Z,7.88
2023-03-10T15:21:54.717Z,6.50
2023-03-10T15:24:39.890Z,6.75
2023-03-10T15:27:06.543Z,5.32
2023-03-10T15:29:33.177Z,7.13
2023-03-10T15:32:01.710Z,6.80
2023-03-10T15:34:28.410Z,6.00
2023-03-10T15:36:56.557Z,5.70
2023-03-10T15:39:31.620Z,7.78
2023-03-10T15:41:58.962Z,6.20
2023-03-10T15:44:25.758Z,4.63
2023-03-10T15:46:55.076Z,5.03
2023-03-10T15:49:21.890Z,4.28
2023-03-10T15:51:48.727Z,4.93
2023-03-10T15:54:15.501Z,4.65
2023-03-10T15:56:42.194Z,5.60
2023-03-10T15:59:08.995Z,5.07
2023-03-10T16:01:35.838Z,5.43
2023-03-10T16:04:05.798Z,4.85
2023-03-10T16:06:34.175Z,5.38
2023-03-10T16:09:01.323Z,5.45
2023-03-10T16:11:28.160Z,5.55
2023-03-10T16:13:54.843Z,5.65
2023-03-10T16:16:23.742Z,5.85
2023-03-10T16:18:50.853Z,6.53
2023-03-10T16:21:18.131Z,6.45
2023-03-10T16:23:45.238Z,6.93
2023-03-10T16:26:11.896Z,6.03
2023-03-10T16:28:41.666Z,6.22
2023-03-10T16:31:09.272Z,6.50
2023-03-10T16:33:37.459Z,7.20
2023-03-10T16:36:06.719Z,6.55
2023-03-10T16:38:34.312Z,7.57
2023-03-10T16:41:01.758Z,8.32
2023-03-10T16:43:29.850Z,6.65
2023-03-10T16:46:14.804Z,6.07
2023-03-10T16:48:43.743Z,8.40
2023-03-10T16:51:37.985Z,8.32
2023-03-10T16:54:24.941Z,9.73
2023-03-10T16:56:53.020Z,9.55
2023-03-10T16:59:22.097Z,11.13
2023-03-10T17:04:15.530Z,6.78
2023-03-10T17:06:43.078Z,9.82
2023-03-10T17:09:11.027Z,10.18
2023-03-10T17:11:47.039Z,8.00
2023-03-10T17:14:15.788Z,8.25
2023-03-10T17:16:43.514Z,9.60
2023-03-10T17:19:20.350Z,8.43
2023-03-10T17:21:49.081Z,9.98
2023-03-10T17:24:17.689Z,9.43
2023-03-10T17:26:44.625Z,6.80
2023-03-10T17:29:12.280Z,9.55
2023-03-10T17:31:39.183Z,9.75
2023-03-10T17:34:12.469Z,8.07
2023-03-10T17:36:39.331Z,6.80
2023-03-10T17:39:06.254Z,7.45
2023-03-10T17:41:34.596Z,7.47
2023-03-10T17:44:01.366Z,5.88
2023-03-10T17:46:29.852Z,5.78
2023-03-10T17:48:57.521Z,7.93
2023-03-10T17:51:27.076Z,6.05
2023-03-10T17:53:54.512Z,4.93
2023-03-10T17:56:22.202Z,5.85
2023-03-10T17:58:49.557Z,6.25
2023-03-10T18:01:21.725Z,8.35
2023-03-10T18:03:48.745Z,6.93
2023-03-10T18:06:24.153Z,6.20
2023-03-10T18:08:52.115Z,5.70
2023-03-10T18:11:20.565Z,7.35
2023-03-10T18:13:48.228Z,6.95
2023-03-10T18:16:22.346Z,5.85
2023-03-10T18:18:49.646Z,5.78
2023-03-10T18:21:17.175Z,6.22
2023-03-10T18:23:43.973Z,7.00
2023-03-10T18:26:13.823Z,5.30
2023-03-10T18:28:40.773Z,6.60
2023-03-10T18:31:27.791Z,6.68
2023-03-10T18:33:54.842Z,7.78
2023-03-10T18:36:24.149Z,6.28
2023-03-10T18:38:51.135Z,6.03
2023-03-10T18:41:19.552Z,6.78
2023-03-10T18:43:46.377Z,5.32
2023-03-10T18:46:13.178Z,6.30
2023-03-10T18:48:39.851Z,7.28
2023-03-10T18:51:06.505Z,4.60
2023-03-10T18:53:33.298Z,6.80
2023-03-10T18:56:00.272Z,4.88
2023-03-10T18:58:27.630Z,4.20
2023-03-10T19:00:54.524Z,3.45
2023-03-10T19:03:21.187Z,5.30
2023-03-10T19:05:53.880Z,5.35
2023-03-10T19:08:25.704Z,4.65
2023-03-10T19:10:57.015Z,4.22
2023-03-10T19:13:25.310Z,3.13
2023-03-10T19:15:51.973Z,3.67
2023-03-10T19:18:18.731Z,4.32
2023-03-10T19:20:46.602Z,6.85
2023-03-10T19:23:14.519Z,5.63
2023-03-10T19:25:41.437Z,4.25
2023-03-10T19:28:08.463Z,5.72
2023-03-10T19:30:35.413Z,3.03
2023-03-10T19:33:02.149Z,3.58
2023-03-10T19:35:28.916Z,3.60
2023-03-10T19:37:55.688Z,2.83
2023-03-10T19:40:23.097Z,3.13
2023-03-10T19:42:49.905Z,3.33
2023-03-10T19:45:17.682Z,2.75
2023-03-10T19:47:45.053Z,2.25
2023-03-10T19:50:15.496Z,2.83
2023-03-10T19:52:49.620Z,3.17
2023-03-10T19:55:23.044Z,3.70
2023-03-10T19:57:51.584Z,4.13
2023-03-10T20:00:24.896Z,4.55
2023-03-10T20:02:53.086Z,3.85
2023-03-10T20:05:19.918Z,5.70
2023-03-10T20:07:47.023Z,4.45
2023-03-10T20:10:15.431Z,4.65
2023-03-10T20:12:42.164Z,6.30
2023-03-10T20:15:09.765Z,9.20
2023-03-10T20:17:36.557Z,14.32
2023-03-10T20:20:10.274Z,6.63
2023-03-10T20:22:41.936Z,4.50
2023-03-10T20:25:10.511Z,4.30
2023-03-10T20:27:37.708Z,5.72
2023-03-10T20:30:09.906Z,11.07
2023-03-10T20:32:36.900Z,7.65
2023-03-10T20:35:04.688Z,5.05
2023-03-10T20:37:31.580Z,4.95
2023-03-10T20:39:58.225Z,5.18
2023-03-10T20:42:24.960Z,5.18
2023-03-10T20:44:51.646Z,4.35
2023-03-10T20:47:18.302Z,4.05
2023-03-10T20:49:46.274Z,5.57
2023-03-10T20:52:12.978Z,4.43
2023-03-10T20:54:39.673Z,4.20
2023-03-10T20:57:06.356Z,3.58
2023-03-10T20:59:33.026Z,4.40
2023-03-10T21:01:59.690Z,4.18
2023-03-10T21:04:28.011Z,4.13
2023-03-10T21:06:54.878Z,4.93
2023-03-10T21:09:21.568Z,3.20
2023-03-10T21:11:48.423Z,3.90
2023-03-10T21:14:16.933Z,4.07
2023-03-10T21:16:45.747Z,3.72
2023-03-10T21:19:12.510Z,4.40
2023-03-10T21:21:39.346Z,3.78
2023-03-10T21:24:06.221Z,3.83
2023-03-10T21:26:33.234Z,3.08
2023-03-10T21:29:00.308Z,3.65
2023-03-10T21:31:27.084Z,4.28
2023-03-10T21:33:53.924Z,3.50
2023-03-10T21:36:23.299Z,4.20
2023-03-10T21:38:51.049Z,3.45
2023-03-10T21:41:26.437Z,2.88
2023-03-10T21:43:54.278Z,3.00
2023-03-10T21:46:21.598Z,2.42
2023-03-10T21:48:48.317Z,2.95
2023-03-10T21:51:16.721Z,3.00
2023-03-10T21:53:43.397Z,3.47
2023-03-10T21:56:10.237Z,2.65
2023-03-10T21:58:36.995Z,2.80
2023-03-10T22:01:07.734Z,3.38
2023-03-10T22:03:35.599Z,2.90
2023-03-10T22:06:04.887Z,3.75
2023-03-10T22:08:33.030Z,3.15
2023-03-10T22:11:00.360Z,2.90
2023-03-10T22:13:27.213Z,3.33
2023-03-10T22:15:54.401Z,2.97
2023-03-10T22:18:21.130Z,3.33
2023-03-10T22:20:47.797Z,3.25
2023-03-10T22:23:14.590Z,3.33
2023-03-10T22:25:41.320Z,3.65
2023-03-10T22:28:08.094Z,3.10
2023-03-10T22:30:34.733Z,3.30
2023-03-10T22:33:03.108Z,3.45
2023-03-10T22:35:29.783Z,3.40
2023-03-10T22:37:56.484Z,3.15
2023-03-10T22:40:25.164Z,3.42
2023-03-10T22:42:53.121Z,2.83
2023-03-10T22:45:46.818Z,3.38
2023-03-10T22:50:43.626Z,2.88
2023-03-10T22:53:15.430Z,4.63
2023-03-10T22:55:43.746Z,2.78
2023-03-10T22:58:11.299Z,3.78
2023-03-10T23:00:39.644Z,3.70
2023-03-10T23:03:07.354Z,3.80
2023-03-10T23:05:34.235Z,3.63
2023-03-10T23:08:00.938Z,2.97
2023-03-10T23:10:30.782Z,3.53
2023-03-10T23:13:03.632Z,4.38
2023-03-10T23:15:33.676Z,3.55
2023-03-10T23:18:00.746Z,3.00
2023-03-10T23:20:36.045Z,3.80
2023-03-10T23:23:04.057Z,3.45
2023-03-10T23:25:33.580Z,3.38
2023-03-10T23:28:00.776Z,3.92
2023-03-10T23:30:28.110Z,3.55
2023-03-10T23:32:55.467Z,3.88
2023-03-10T23:35:31.408Z,3.83
2023-03-10T23:38:00.105Z,3.63
2023-03-10T23:40:28.263Z,3.83
2023-03-10T23:42:56.096Z,5.10
2023-03-10T23:45:23.903Z,3.83
2023-03-10T23:47:51.008Z,3.53
2023-03-10T23:50:21.308Z,3.67
2023-03-10T23:52:48.499Z,3.13
2023-03-10T23:55:36.423Z,3.35
2023-03-10T23:58:03.739Z,3.65
